createdAt,value
2023-05-14T00:00:00.038Z,99988.72
2023-05-14T00:02:27.215Z,99990.44
2023-05-14T00:04:54.341Z,99989.59
2023-05-14T00:07:21.287Z,99992.19
2023-05-14T00:09:48.237Z,99987.94
2023-05-14T00:12:15.409Z,99987.97
2023-05-14T00:14:42.383Z,99990.50
2023-05-14T00:17:09.957Z,99983.75
2023-05-14T00:19:36.913Z,99984.59
2023-05-14T00:22:04.098Z,99982.06
2023-05-14T00:24:31.033Z,99985.47
2023-05-14T00:26:58.045Z,99985.53
2023-05-14T00:29:25.006Z,99994.84
2023-05-14T00:31:52.075Z,99984.72
2023-05-14T00:34:19.155Z,99977.13
2023-05-14T00:36:46.133Z,99983.09
2023-05-14T00:39:14.188Z,99982.28
2023-05-14T00:41:41.292Z,99987.34
2023-05-14T00:44:08.327Z,99989.09
2023-05-14T00:46:35.630Z,99978.03
2023-05-14T00:49:03.389Z,99983.16
2023-05-14T00:51:30.677Z,99972.13
2023-05-14T00:53:57.929Z,99975.53
2023-05-14T00:56:25.657Z,99962.00
2023-05-14T00:58:52.640Z,99967.94
2023-05-14T01:01:19.688Z,99970.53
2023-05-14T01:03:47.014Z,99975.63
2023-05-14T01:06:21.571Z,99970.53
2023-05-14T01:09:08.725Z,99968.88
2023-05-14T01:12:06.324Z,99961.28
2023-05-14T01:15:02.423Z,99957.09
2023-05-14T01:17:33.514Z,99956.22
2023-05-14T01:20:00.899Z,99953.72
2023-05-14T01:22:27.922Z,99952.03
2023-05-14T01:24:54.987Z,99951.19
2023-05-14T01:28:05.537Z,99953.75
2023-05-14T01:30:40.260Z,99958.84
2023-05-14T01:33:13.980Z,99963.06
2023-05-14T01:35:43.333Z,99958.84
2023-05-14T01:38:14.908Z,99956.31
2023-05-14T01:40:43.169Z,99953.78
2023-05-14T01:43:11.608Z,99957.19
2023-05-14T01:45:38.721Z,99949.56
2023-05-14T01:48:06.441Z,99949.56
2023-05-14T01:50:33.617Z,99958.03
2023-05-14T01:53:00.764Z,99955.50
2023-05-14T01:55:28.066Z,99951.28
2023-05-14T01:57:55.184Z,99943.66
2023-05-14T02:00:26.012Z,99946.22
2023-05-14T02:02:53.475Z,99936.91
2023-05-14T02:05:21.077Z,99935.22
2023-05-14T02:07:48.083Z,99935.22
2023-05-14T02:10:16.213Z,99925.09
2023-05-14T02:12:43.922Z,99925.09
2023-05-14T02:15:12.095Z,99914.13
2023-05-14T02:17:39.356Z,99916.63
2023-05-14T02:20:07.744Z,99910.72
2023-05-14T02:22:42.218Z,99919.19
2023-05-14T02:25:09.935Z,99914.97
2023-05-14T02:27:37.017Z,99909.06
2023-05-14T02:30:06.159Z,99906.50
2023-05-14T02:32:33.525Z,99910.75
2023-05-14T02:35:00.692Z,99908.22
2023-05-14T02:37:27.711Z,99908.22
2023-05-14T02:39:54.691Z,99910.78
2023-05-14T02:42:23.111Z,99911.59
2023-05-14T02:44:52.231Z,99921.75
2023-05-14T02:47:19.562Z,99912.44
2023-05-14T02:49:46.608Z,99920.91
2023-05-14T02:52:13.788Z,99920.91
2023-05-14T02:54:40.846Z,99925.16
2023-05-14T02:57:07.844Z,99930.22
2023-05-14T02:59:35.266Z,99921.75
2023-05-14T03:02:02.836Z,99918.38
2023-05-14T03:04:30.456Z,99920.91
2023-05-14T03:06:57.502Z,99925.97
2023-05-14T03:09:24.438Z,99918.34
2023-05-14T03:11:51.444Z,99925.13
2023-05-14T03:14:18.433Z,99906.53
2023-05-14T03:16:46.030Z,99915.00
2023-05-14T03:19:13.254Z,99908.22
2023-05-14T03:21:40.489Z,99912.47
2023-05-14T03:24:07.483Z,99914.16
2023-05-14T03:26:34.517Z,99911.63
2023-05-14T03:29:02.358Z,99917.53
2023-05-14T03:31:29.583Z,99906.56
2023-05-14T03:33:56.896Z,99918.41
2023-05-14T03:36:23.870Z,99904.00
2023-05-14T03:38:50.827Z,99905.72
2023-05-14T03:41:19.127Z,99910.78
2023-05-14T03:43:46.112Z,99903.97
2023-05-14T03:46:13.323Z,99899.78
2023-05-14T03:48:40.961Z,99907.41
2023-05-14T03:51:08.062Z,99906.56
2023-05-14T03:53:36.551Z,99904.88
2023-05-14T03:56:03.721Z,99899.78
2023-05-14T03:58:30.946Z,99898.09
2023-05-14T04:00:58.069Z,99898.94
2023-05-14T04:03:25.770Z,99889.63
2023-05-14T04:05:52.824Z,99897.22
2023-05-14T04:08:20.050Z,99898.06
2023-05-14T04:10:47.096Z,99897.25
2023-05-14T04:13:14.141Z,99894.69
2023-05-14T04:15:41.645Z,99899.78
2023-05-14T04:18:08.698Z,99898.06
2023-05-14T04:20:35.802Z,99909.03
2023-05-14T04:23:02.849Z,99898.88
2023-05-14T04:25:30.458Z,99903.06
2023-05-14T04:27:58.546Z,99897.16
2023-05-14T04:30:26.372Z,99892.06
2023-05-14T04:32:53.451Z,99902.16
2023-05-14T04:35:22.633Z,99897.88
2023-05-14T04:37:51.115Z,99899.47
2023-05-14T04:40:18.082Z,99897.72
2023-05-14T04:42:45.171Z,99901.91
2023-05-14T04:45:13.491Z,99895.88
2023-05-14T04:47:41.639Z,99901.69
2023-05-14T04:50:09.732Z,99899.03
2023-05-14T04:52:36.944Z,99903.13
2023-05-14T04:55:04.251Z,99901.25
2023-05-14T04:57:31.247Z,99890.06
2023-05-14T04:59:58.214Z,99900.91
2023-05-14T05:02:25.524Z,99908.34
2023-05-14T05:04:52.524Z,99897.94
2023-05-14T05:07:19.916Z,99903.66
2023-05-14T05:09:46.903Z,99900.81
2023-05-14T05:12:13.875Z,99899.66
2023-05-14T05:14:40.852Z,99911.25
2023-05-14T05:17:08.235Z,99897.34
2023-05-14T05:19:43.040Z,99903.84
2023-05-14T05:22:11.152Z,99896.06
2023-05-14T05:24:38.120Z,99901.78
2023-05-14T05:27:05.995Z,99899.78
2023-05-14T05:29:33.377Z,99900.22
2023-05-14T05:32:00.536Z,99899.06
2023-05-14T05:34:27.736Z,99902.13
2023-05-14T05:36:54.659Z,99906.03
2023-05-14T05:39:21.651Z,99908.25
2023-05-14T05:41:48.627Z,99901.88
2023-05-14T05:44:15.665Z,99904.00
2023-05-14T05:46:42.845Z,99894.06
2023-05-14T05:49:09.799Z,99896.88
2023-05-14T05:51:36.742Z,99893.69
2023-05-14T05:54:03.916Z,99898.19
2023-05-14T05:56:30.858Z,99892.50
2023-05-14T05:58:57.775Z,99904.56
2023-05-14T06:01:24.776Z,99896.16
2023-05-14T06:03:51.713Z,99903.09
2023-05-14T06:06:18.639Z,99899.72
2023-05-14T06:08:45.612Z,99900.63
2023-05-14T06:11:12.693Z,99903.19
2023-05-14T06:13:39.642Z,99903.81
2023-05-14T06:16:06.775Z,99905.22
2023-05-14T06:18:33.743Z,99898.97
2023-05-14T06:21:00.677Z,99903.91
2023-05-14T06:23:27.632Z,99897.66
2023-05-14T06:25:54.632Z,99899.03
2023-05-14T06:28:21.562Z,99901.44
2023-05-14T06:30:50.564Z,99901.41
2023-05-14T06:33:19.391Z,99900.44
2023-05-14T06:35:47.533Z,99912.28
2023-05-14T06:38:14.531Z,99903.66
2023-05-14T06:40:41.537Z,99899.78
2023-05-14T06:43:08.506Z,99904.03
2023-05-14T06:45:35.829Z,99909.13
2023-05-14T06:48:02.978Z,99914.31
2023-05-14T06:50:29.980Z,99903.66
2023-05-14T06:52:56.921Z,99902.81
2023-05-14T06:55:23.908Z,99896.72
2023-05-14T06:57:50.913Z,99897.44
2023-05-14T07:00:18.510Z,99897.16
2023-05-14T07:02:45.539Z,99902.88
2023-05-14T07:05:12.920Z,99893.19
2023-05-14T07:07:40.284Z,99902.22
2023-05-14T07:10:08.161Z,99898.44
2023-05-14T07:12:35.361Z,99900.38
2023-05-14T07:15:02.349Z,99895.31
2023-05-14T07:17:29.626Z,99893.00
2023-05-14T07:19:56.653Z,99887.91
2023-05-14T07:22:23.653Z,99895.47
2023-05-14T07:24:50.595Z,99900.25
2023-05-14T07:27:17.611Z,99898.97
2023-05-14T07:29:44.819Z,99886.16
2023-05-14T07:32:13.904Z,99894.72
2023-05-14T07:34:42.502Z,99893.06
2023-05-14T07:37:09.631Z,99897.38
2023-05-14T07:39:36.586Z,99892.69
2023-05-14T07:42:04.449Z,99892.31
2023-05-14T07:44:31.408Z,99901.06
2023-05-14T07:46:58.450Z,99901.09
2023-05-14T07:49:25.427Z,99908.69
2023-05-14T07:51:52.338Z,99901.84
2023-05-14T07:54:19.303Z,99894.91
2023-05-14T07:56:46.249Z,99903.31
2023-05-14T07:59:13.223Z,99898.31
2023-05-14T08:01:40.586Z,99895.34
2023-05-14T08:04:08.097Z,99899.63
2023-05-14T08:06:35.718Z,99896.44
2023-05-14T08:09:05.261Z,99904.97
2023-05-14T08:11:32.214Z,99905.69
2023-05-14T08:13:59.331Z,99902.03
2023-05-14T08:16:26.687Z,99894.00
2023-05-14T08:18:53.736Z,99890.00
2023-05-14T08:21:20.851Z,99895.09
2023-05-14T08:23:47.815Z,99891.34
2023-05-14T08:26:14.839Z,99895.06
2023-05-14T08:28:41.839Z,99895.34
2023-05-14T08:31:08.833Z,99902.09
2023-05-14T08:33:35.811Z,99901.25
2023-05-14T08:36:02.731Z,99896.63
2023-05-14T08:38:29.861Z,99900.53
2023-05-14T08:40:58.989Z,99900.28
2023-05-14T08:43:45.772Z,99892.59
2023-05-14T08:46:15.464Z,99890.00
2023-05-14T08:48:43.498Z,99892.28
2023-05-14T08:51:10.553Z,99897.78
2023-05-14T08:53:38.323Z,99898.47
2023-05-14T08:56:07.852Z,99897.88
2023-05-14T08:58:34.892Z,99895.81
2023-05-14T09:01:01.889Z,99899.28
2023-05-14T09:03:30.796Z,99893.06
2023-05-14T09:06:00.083Z,99902.13
2023-05-14T09:08:27.354Z,99898.38
2023-05-14T09:10:54.292Z,99887.56
2023-05-14T09:13:21.301Z,99891.13
2023-05-14T09:15:49.788Z,99894.84
2023-05-14T09:18:17.836Z,99889.94
2023-05-14T09:20:46.626Z,99898.84
2023-05-14T09:23:13.560Z,99899.84
2023-05-14T09:25:40.865Z,99899.84
2023-05-14T09:28:09.576Z,99892.09
2023-05-14T09:30:37.108Z,99889.22
2023-05-14T09:33:04.272Z,99889.22
2023-05-14T09:35:32.343Z,99889.44
2023-05-14T09:37:59.309Z,99889.81
2023-05-14T09:40:26.608Z,99890.22
2023-05-14T09:42:54.228Z,99883.16
2023-05-14T09:45:21.337Z,99887.66
2023-05-14T09:47:48.544Z,99893.75
2023-05-14T09:50:15.694Z,99896.88
2023-05-14T09:52:42.715Z,99891.53
2023-05-14T09:55:09.981Z,99890.50
2023-05-14T09:57:37.148Z,99891.34
2023-05-14T10:00:04.845Z,99892.94
2023-05-14T10:02:40.820Z,99894.38
2023-05-14T10:05:08.655Z,99891.84
2023-05-14T10:07:49.712Z,99893.72
2023-05-14T10:10:20.585Z,99883.84
2023-05-14T10:12:58.650Z,99890.44
2023-05-14T10:15:38.071Z,99894.78
2023-05-14T10:18:15.832Z,99888.81
2023-05-14T10:20:44.596Z,99888.81
2023-05-14T10:23:11.992Z,99878.13
2023-05-14T10:25:41.639Z,99885.53
2023-05-14T10:28:08.945Z,99877.47
2023-05-14T10:30:35.920Z,99878.91
2023-05-14T10:33:14.250Z,99871.47
2023-05-14T10:36:07.525Z,99873.47
2023-05-14T10:38:37.232Z,99861.91
2023-05-14T10:41:17.716Z,99864.81
2023-05-14T10:43:44.908Z,99868.34
2023-05-14T10:46:14.253Z,99858.69
2023-05-14T10:48:45.738Z,99859.94
2023-05-14T10:51:13.041Z,99860.38
2023-05-14T10:53:44.088Z,99850.94
2023-05-14T10:56:13.998Z,99853.38
2023-05-14T10:58:44.690Z,99845.16
2023-05-14T11:01:13.857Z,99843.78
2023-05-14T11:03:46.856Z,99838.72
2023-05-14T11:06:16.176Z,99839.16
2023-05-14T11:08:44.681Z,99831.81
2023-05-14T11:11:12.821Z,99832.72
2023-05-14T11:13:41.191Z,99827.66
2023-05-14T11:16:21.920Z,99825.84
2023-05-14T11:19:03.550Z,99830.56
2023-05-14T11:21:32.499Z,99815.56
2023-05-14T11:24:03.696Z,99810.56
2023-05-14T11:26:31.996Z,99814.69
2023-05-14T11:28:59.160Z,99810.25
2023-05-14T11:31:26.209Z,99809.38
2023-05-14T11:33:53.628Z,99802.75
2023-05-14T11:36:20.797Z,99804.97
2023-05-14T11:38:50.540Z,99803.09
2023-05-14T11:41:17.809Z,99789.31
2023-05-14T11:43:44.822Z,99783.28
2023-05-14T11:46:22.313Z,99784.72
2023-05-14T11:48:49.518Z,99777.44
2023-05-14T11:51:16.725Z,99776.06
2023-05-14T11:53:45.470Z,99769.53
2023-05-14T11:56:12.570Z,99762.94
2023-05-14T11:58:39.783Z,99775.25
2023-05-14T12:01:06.855Z,99765.94
2023-05-14T12:03:35.134Z,99762.31
2023-05-14T12:06:07.339Z,99759.44
2023-05-14T12:08:34.274Z,99760.84
2023-05-14T12:11:01.941Z,99747.56
2023-05-14T12:13:31.217Z,99754.97
2023-05-14T12:16:01.957Z,99756.03
2023-05-14T12:18:31.851Z,99739.81
2023-05-14T12:21:08.415Z,99744.72
2023-05-14T12:23:35.570Z,99741.34
2023-05-14T12:26:09.431Z,99740.22
2023-05-14T12:28:43.241Z,99734.13
2023-05-14T12:31:10.670Z,99732.00
2023-05-14T12:33:37.626Z,99721.03
2023-05-14T12:36:20.422Z,99720.13
2023-05-14T12:38:49.134Z,99716.47
2023-05-14T12:41:17.668Z,99717.84
2023-05-14T12:43:45.144Z,99711.22
2023-05-14T12:46:12.231Z,99711.72
2023-05-14T12:48:39.172Z,99714.00
2023-05-14T12:51:06.577Z,99701.69
2023-05-14T12:53:35.221Z,99700.03
2023-05-14T12:56:02.421Z,99695.38
2023-05-14T12:58:29.583Z,99701.16
2023-05-14T13:00:56.641Z,99701.16
2023-05-14T13:03:23.902Z,99698.22
2023-05-14T13:05:54.937Z,99691.72
2023-05-14T13:08:24.923Z,99690.38
2023-05-14T13:10:56.294Z,99685.56
2023-05-14T13:13:23.497Z,99685.41
2023-05-14T13:15:50.786Z,99686.84
2023-05-14T13:18:18.132Z,99686.25
2023-05-14T13:20:47.703Z,99686.66
2023-05-14T13:23:15.565Z,99674.22
2023-05-14T13:25:42.605Z,99675.22
2023-05-14T13:28:09.704Z,99667.69
2023-05-14T13:30:36.742Z,99677.91
2023-05-14T13:33:04.273Z,99665.22
2023-05-14T13:35:31.415Z,99664.47
2023-05-14T13:37:58.402Z,99657.72
2023-05-14T13:40:25.621Z,99670.59
2023-05-14T13:42:52.594Z,99667.88
2023-05-14T13:45:19.979Z,99673.66
2023-05-14T13:47:48.243Z,99670.81
2023-05-14T13:50:16.542Z,99671.56
2023-05-14T13:52:43.809Z,99667.50
2023-05-14T13:55:10.783Z,99664.34
2023-05-14T13:57:39.688Z,99656.09
2023-05-14T14:00:07.929Z,99657.22
2023-05-14T14:02:35.229Z,99656.50
2023-05-14T14:05:02.523Z,99657.41
2023-05-14T14:07:29.526Z,99656.50
2023-05-14T14:09:56.576Z,99658.78
2023-05-14T14:12:23.773Z,99650.78
2023-05-14T14:14:51.001Z,99643.63
2023-05-14T14:17:17.986Z,99632.94
2023-05-14T14:19:44.970Z,99638.66
2023-05-14T14:22:13.937Z,99630.53
2023-05-14T14:24:41.027Z,99629.94
2023-05-14T14:27:08.470Z,99632.84
2023-05-14T14:29:36.659Z,99628.47
2023-05-14T14:32:04.703Z,99638.97
2023-05-14T14:34:31.744Z,99633.06
2023-05-14T14:36:58.765Z,99630.47
2023-05-14T14:39:26.481Z,99617.66
2023-05-14T14:41:53.507Z,99613.41
2023-05-14T14:44:20.542Z,99614.88
2023-05-14T14:46:47.647Z,99611.09
2023-05-14T14:49:14.632Z,99617.03
2023-05-14T14:51:41.625Z,99620.25
2023-05-14T14:54:08.650Z,99619.09
2023-05-14T14:56:35.616Z,99619.84
2023-05-14T14:59:03.373Z,99618.91
2023-05-14T15:01:30.417Z,99612.03
2023-05-14T15:03:57.421Z,99616.59
2023-05-14T15:06:24.435Z,99610.88
2023-05-14T15:08:51.442Z,99607.78
2023-05-14T15:11:18.620Z,99602.16
2023-05-14T15:13:45.645Z,99609.38
2023-05-14T15:16:13.561Z,99608.19
2023-05-14T15:18:40.608Z,99602.75
2023-05-14T15:21:07.651Z,99598.31
2023-05-14T15:23:34.628Z,99604.22
2023-05-14T15:26:01.531Z,99595.38
2023-05-14T15:28:28.522Z,99593.41
2023-05-14T15:30:55.559Z,99597.09
2023-05-14T15:33:22.545Z,99600.31
2023-05-14T15:35:49.523Z,99593.84
2023-05-14T15:38:16.682Z,99597.78
2023-05-14T15:40:43.729Z,99596.72
2023-05-14T15:43:10.918Z,99593.56
2023-05-14T15:45:37.935Z,99596.47
2023-05-14T15:48:05.395Z,99588.16
2023-05-14T15:50:32.490Z,99590.00
2023-05-14T15:53:00.528Z,99588.34
2023-05-14T15:55:27.752Z,99584.19
2023-05-14T15:57:55.123Z,99588.53
2023-05-14T16:00:22.796Z,99589.38
2023-05-14T16:02:51.333Z,99591.03
2023-05-14T16:05:19.014Z,99587.53
2023-05-14T16:07:46.429Z,99588.16
2023-05-14T16:10:13.495Z,99586.50
2023-05-14T16:12:40.465Z,99592.31
2023-05-14T16:15:08.587Z,99580.91
2023-05-14T16:17:35.752Z,99584.44
2023-05-14T16:20:04.767Z,99582.00
2023-05-14T16:22:36.014Z,99580.44
2023-05-14T16:25:04.710Z,99577.13
2023-05-14T16:27:32.073Z,99577.84
2023-05-14T16:29:59.124Z,99571.94
2023-05-14T16:32:26.204Z,99578.06
2023-05-14T16:34:53.303Z,99570.59
2023-05-14T16:37:20.592Z,99575.13
2023-05-14T16:39:48.454Z,99575.28
2023-05-14T16:42:15.414Z,99577.53
2023-05-14T16:44:42.426Z,99572.72
2023-05-14T16:47:09.408Z,99572.19
2023-05-14T16:49:36.453Z,99566.75
2023-05-14T16:52:03.821Z,99571.69
2023-05-14T16:54:30.870Z,99570.50
2023-05-14T16:56:57.855Z,99576.25
2023-05-14T16:59:25.239Z,99570.75
2023-05-14T17:01:52.344Z,99573.91
2023-05-14T17:04:19.466Z,99570.03
2023-05-14T17:06:46.671Z,99570.50
2023-05-14T17:09:13.672Z,99566.78
2023-05-14T17:11:40.914Z,99568.00
2023-05-14T17:14:08.090Z,99561.59
2023-05-14T17:16:35.101Z,99568.91
2023-05-14T17:19:02.247Z,99568.50
2023-05-14T17:21:29.278Z,99567.84
2023-05-14T17:23:56.393Z,99578.53
2023-05-14T17:26:23.499Z,99575.47
2023-05-14T17:28:50.534Z,99575.09
2023-05-14T17:31:17.643Z,99574.78
2023-05-14T17:33:44.599Z,99565.81
2023-05-14T17:36:11.608Z,99568.16
2023-05-14T17:38:39.118Z,99575.66
2023-05-14T17:41:06.307Z,99572.84
2023-05-14T17:43:33.459Z,99583.59
2023-05-14T17:46:00.437Z,99581.72
2023-05-14T17:48:27.479Z,99586.63
2023-05-14T17:50:54.495Z,99583.84
2023-05-14T17:53:21.773Z,99585.50
2023-05-14T17:55:50.085Z,99586.03
2023-05-14T17:58:17.306Z,99581.53
2023-05-14T18:00:44.439Z,99582.09
2023-05-14T18:03:11.871Z,99585.22
2023-05-14T18:05:39.071Z,99595.94
2023-05-14T18:08:06.137Z,99590.31
2023-05-14T18:10:33.131Z,99583.84
2023-05-14T18:13:00.273Z,99584.25
2023-05-14T18:15:27.482Z,99592.44
2023-05-14T18:17:54.768Z,99585.97
2023-05-14T18:20:21.907Z,99592.41
2023-05-14T18:22:50.561Z,99589.38
2023-05-14T18:25:17.931Z,99597.47
2023-05-14T18:27:45.627Z,99594.53
2023-05-14T18:30:14.990Z,99598.28
2023-05-14T18:32:44.548Z,99604.63
2023-05-14T18:35:13.611Z,99593.91
2023-05-14T18:37:40.984Z,99597.81
2023-05-14T18:40:09.155Z,99601.72
2023-05-14T18:42:36.236Z,99597.00
2023-05-14T18:45:04.294Z,99601.66
2023-05-14T18:47:33.536Z,99598.75
2023-05-14T18:50:01.898Z,99610.28
2023-05-14T18:52:29.854Z,99605.56
2023-05-14T18:54:56.885Z,99596.56
2023-05-14T18:57:34.907Z,99601.16
2023-05-14T19:00:02.112Z,99611.00
2023-05-14T19:02:29.767Z,99601.03
2023-05-14T19:04:57.096Z,99610.88
2023-05-14T19:07:24.361Z,99615.31
2023-05-14T19:09:51.867Z,99616.53
2023-05-14T19:12:18.818Z,99609.25
2023-05-14T19:14:46.014Z,99613.78
2023-05-14T19:17:13.185Z,99614.16
2023-05-14T19:19:40.141Z,99621.22
2023-05-14T19:22:07.254Z,99618.13
2023-05-14T19:24:34.262Z,99619.22
2023-05-14T19:27:01.404Z,99610.97
2023-05-14T19:29:28.524Z,99619.84
2023-05-14T19:31:55.615Z,99622.56
2023-05-14T19:34:22.642Z,99621.91
2023-05-14T19:36:50.100Z,99621.25
2023-05-14T19:39:17.415Z,99622.19
2023-05-14T19:41:44.386Z,99630.16
2023-05-14T19:44:11.346Z,99626.03
2023-05-14T19:46:38.493Z,99635.59
2023-05-14T19:49:05.974Z,99634.06
2023-05-14T19:51:32.916Z,99631.53
2023-05-14T19:54:00.088Z,99635.16
2023-05-14T19:56:27.975Z,99631.88
2023-05-14T19:58:55.130Z,99633.72
2023-05-14T20:01:22.402Z,99629.63
2023-05-14T20:03:49.603Z,99630.59
2023-05-14T20:06:17.472Z,99627.28
2023-05-14T20:08:47.694Z,99631.66
2023-05-14T20:11:15.632Z,99623.28
2023-05-14T20:13:42.663Z,99617.47
2023-05-14T20:16:09.660Z,99631.19
2023-05-14T20:18:36.749Z,99633.06
2023-05-14T20:21:04.182Z,99625.44
2023-05-14T20:23:32.332Z,99628.19
2023-05-14T20:26:01.741Z,99632.66
2023-05-14T20:28:29.246Z,99624.28
2023-05-14T20:31:08.038Z,99623.47
2023-05-14T20:33:35.298Z,99625.28
2023-05-14T20:36:04.401Z,99627.00
2023-05-14T20:38:32.769Z,99621.16
2023-05-14T20:40:59.856Z,99623.75
2023-05-14T20:43:27.740Z,99623.81
2023-05-14T20:45:57.136Z,99625.50
2023-05-14T20:48:24.216Z,99628.09
2023-05-14T20:50:51.171Z,99629.00
2023-05-14T20:53:18.171Z,99627.44
2023-05-14T20:55:45.235Z,99629.13
2023-05-14T20:58:12.186Z,99629.94
2023-05-14T21:00:39.261Z,99626.56
2023-05-14T21:03:06.401Z,99621.50
2023-05-14T21:05:33.659Z,99628.44
2023-05-14T21:08:00.617Z,99619.91
2023-05-14T21:10:27.673Z,99622.59
2023-05-14T21:12:54.755Z,99626.09
2023-05-14T21:15:21.737Z,99622.72
2023-05-14T21:17:48.771Z,99618.59
2023-05-14T21:20:15.831Z,99621.28
2023-05-14T21:22:42.778Z,99621.34
2023-05-14T21:25:10.194Z,99628.22
2023-05-14T21:27:37.380Z,99626.59
2023-05-14T21:30:05.058Z,99631.84
2023-05-14T21:32:32.718Z,99627.66
2023-05-14T21:34:59.690Z,99633.72
2023-05-14T21:37:26.749Z,99620.16
2023-05-14T21:39:53.682Z,99626.22
2023-05-14T21:42:21.117Z,99621.22
2023-05-14T21:44:48.093Z,99630.66
2023-05-14T21:47:16.279Z,99620.53
2023-05-14T21:49:43.541Z,99629.09
2023-05-14T21:52:10.736Z,99630.03
2023-05-14T21:54:37.656Z,99625.84
2023-05-14T21:57:04.793Z,99632.72
2023-05-14T21:59:31.736Z,99636.25
2023-05-14T22:04:28.544Z,99639.78
2023-05-14T22:06:55.958Z,99638.13
2023-05-14T22:09:22.885Z,99636.56
2023-05-14T22:11:49.865Z,99633.31
2023-05-14T22:14:17.210Z,99634.31
2023-05-14T22:16:44.402Z,99633.53
2023-05-14T22:19:11.813Z,99633.66
2023-05-14T22:21:38.995Z,99640.50
2023-05-14T22:24:06.350Z,99640.56
2023-05-14T22:26:33.411Z,99636.28
2023-05-14T22:29:00.446Z,99628.63
2023-05-14T22:31:27.459Z,99629.47
2023-05-14T22:33:54.724Z,99626.94
2023-05-14T22:36:21.670Z,99618.44
2023-05-14T22:38:48.621Z,99615.88
2023-05-14T22:41:17.458Z,99617.59
2023-05-14T22:43:44.481Z,99614.22
2023-05-14T22:46:11.508Z,99608.34
2023-05-14T22:48:38.616Z,99611.00
2023-05-14T22:51:05.661Z,99620.44
2023-05-14T22:53:32.664Z,99618.00
2023-05-14T22:55:59.684Z,99618.13
2023-05-14T22:58:26.586Z,99611.47
2023-05-14T23:00:53.582Z,99611.59
2023-05-14T23:03:20.649Z,99602.38
2023-05-14T23:05:47.615Z,99605.06
2023-05-14T23:08:14.608Z,99607.72
2023-05-14T23:10:41.782Z,99602.72
2023-05-14T23:13:08.700Z,99597.66
2023-05-14T23:15:35.780Z,99603.63
2023-05-14T23:18:02.888Z,99606.97
2023-05-14T23:20:29.991Z,99598.31
2023-05-14T23:22:56.905Z,99602.50
2023-05-14T23:25:24.335Z,99601.47
2023-05-14T23:27:51.660Z,99604.78
2023-05-14T23:30:18.662Z,99608.97
2023-05-14T23:32:45.658Z,99612.25
2023-05-14T23:35:12.666Z,99601.94
2023-05-14T23:37:47.077Z,99601.00
2023-05-14T23:40:15.657Z,99594.97
2023-05-14T23:42:43.442Z,99588.97
2023-05-14T23:45:12.169Z,99582.91
2023-05-14T23:47:40.479Z,99583.72
2023-05-14T23:50:08.034Z,99590.53
2023-05-14T23:52:35.034Z,99587.97
2023-05-14T23:55:04.182Z,99589.63
2023-05-14T23:57:31.235Z,99585.41
2023-05-14T23:59:58.385Z,99589.53
